createdAt,value
2022-08-09T00:04:35.003Z,60.40
2022-08-09T00:07:10.727Z,60.40
2022-08-09T00:09:41.249Z,67.30
2022-08-09T00:12:22.595Z,62.20
2022-08-09T00:15:06.536Z,60.50
2022-08-09T00:23:07.828Z,60.30
2022-08-09T00:25:54.308Z,75.00
2022-08-09T00:28:27.168Z,63.60
2022-08-09T00:33:32.787Z,76.30
2022-08-09T00:38:52.215Z,61.30
2022-08-09T00:44:11.018Z,68.40
2022-08-09T00:47:04.883Z,64.70
2022-08-09T01:02:57.186Z,67.00
2022-08-09T01:05:53.575Z,66.80
2022-08-09T01:08:36.938Z,66.90
2022-08-09T01:13:59.322Z,66.80
2022-08-09T01:16:35.899Z,66.70
2022-08-09T01:35:28.213Z,67.70
2022-08-09T01:38:09.901Z,68.10
2022-08-09T01:43:16.506Z,68.90
2022-08-09T01:45:49.218Z,71.50
2022-08-09T01:48:29.432Z,69.20
2022-08-09T01:53:41.638Z,70.10
2022-08-09T01:56:13.157Z,70.20
2022-08-09T02:23:07.895Z,73.10
2022-08-09T02:31:01.964Z,73.50
2022-08-09T02:36:32.588Z,74.30
2022-08-09T02:44:29.481Z,75.40
2022-08-09T02:47:08.001Z,75.90
2022-08-09T03:16:06.089Z,78.90
2022-08-09T03:21:10.685Z,79.40
2022-08-09T03:29:22.755Z,97.50
2022-08-09T03:37:54.443Z,95.20
2022-08-09T03:39:56.620Z,93.70
2022-08-09T03:52:58.999Z,91.10
2022-08-09T03:55:30.239Z,82.10
2022-08-09T04:11:16.705Z,99.40
2022-08-09T04:27:03.282Z,99.60
2022-08-09T04:34:36.021Z,98.90
2022-08-09T04:49:54.482Z,99.70
2022-08-09T04:52:30.399Z,85.80
2022-08-09T04:55:02.556Z,85.90
2022-08-09T05:03:12.911Z,99.90
2022-08-09T05:08:43.916Z,99.90
2022-08-09T05:24:20.024Z,85.00
2022-08-09T05:34:36.013Z,98.10
2022-08-09T05:37:11.511Z,82.90
2022-08-09T05:42:17.438Z,82.50
2022-08-09T05:44:52.595Z,98.00
2022-08-09T05:47:23.339Z,97.90
2022-08-09T05:50:26.927Z,97.40
2022-08-09T05:52:53.799Z,86.60
2022-08-09T06:03:10.756Z,78.20
2022-08-09T06:11:16.330Z,76.50
2022-08-09T06:21:19.074Z,75.60
2022-08-09T06:26:34.375Z,71.50
2022-08-09T06:37:00.909Z,73.20
2022-08-09T06:42:24.898Z,67.20
2022-08-09T06:44:59.363Z,88.40
2022-08-09T06:50:16.809Z,90.00
2022-08-09T06:52:49.946Z,65.60
2022-08-09T06:55:23.234Z,88.60
2022-08-09T06:58:02.548Z,87.30
2022-08-09T07:00:49.735Z,62.20
2022-08-09T07:03:28.482Z,88.20
2022-08-09T07:06:04.727Z,60.00
2022-08-09T07:14:04.448Z,59.10
2022-08-09T07:19:18.639Z,82.80
2022-08-09T07:21:57.010Z,81.70
2022-08-09T07:24:32.467Z,71.20
2022-08-09T07:30:03.133Z,56.90
2022-08-09T07:35:10.346Z,55.00
2022-08-09T07:37:44.579Z,66.40
2022-08-09T07:40:18.616Z,77.60
2022-08-09T07:42:52.458Z,55.20
2022-08-09T07:45:39.828Z,53.70
2022-08-09T07:54:05.190Z,69.30
2022-08-09T07:56:38.989Z,52.60
2022-08-09T07:59:25.174Z,55.10
2022-08-09T08:01:58.567Z,52.00
2022-08-09T08:12:45.133Z,73.40
2022-08-09T08:15:18.518Z,51.40
2022-08-09T08:17:58.175Z,51.10
2022-08-09T08:20:32.548Z,50.50
2022-08-09T08:23:15.740Z,49.80
2022-08-09T08:25:50.302Z,49.80
2022-08-09T08:33:52.670Z,48.20
2022-08-09T08:36:29.469Z,47.40
2022-08-09T08:41:51.112Z,50.30
2022-08-09T08:47:04.651Z,46.50
2022-08-09T08:49:48.686Z,44.40
2022-08-09T08:52:52.941Z,44.30
2022-08-09T08:55:15.193Z,55.20
2022-08-09T09:03:08.835Z,44.00
2022-08-09T09:05:59.715Z,43.50
2022-08-09T09:08:40.343Z,42.80
2022-08-09T09:13:57.164Z,50.80
2022-08-09T09:16:32.293Z,50.60
2022-08-09T09:22:13.841Z,41.20
2022-08-09T09:24:47.591Z,50.60
2022-08-09T09:28:06.804Z,41.20
2022-08-09T09:30:38.065Z,46.20
2022-08-09T09:33:16.439Z,48.60
2022-08-09T09:36:02.001Z,40.60
2022-08-09T09:38:50.570Z,39.60
2022-08-09T09:41:48.679Z,48.30
2022-08-09T09:44:27.984Z,47.90
2022-08-09T09:47:11.470Z,39.40
2022-08-09T09:50:14.354Z,47.90
2022-08-09T09:55:24.267Z,47.60
2022-08-09T09:58:18.251Z,46.40
2022-08-09T10:00:54.568Z,45.90
2022-08-09T10:03:57.545Z,46.10
2022-08-09T10:06:32.417Z,38.70
2022-08-09T10:09:12.019Z,37.90
2022-08-09T10:12:14.436Z,42.40
2022-08-09T10:14:52.034Z,37.10
2022-08-09T10:17:39.637Z,44.10
2022-08-09T10:20:32.307Z,36.90
2022-08-09T10:23:19.892Z,41.20
2022-08-09T10:26:04.450Z,39.50
2022-08-09T10:28:48.634Z,42.10
2022-08-09T10:37:01.546Z,35.20
2022-08-09T10:39:40.959Z,36.00
2022-08-09T10:42:19.936Z,37.50
2022-08-09T10:45:00.142Z,35.50
2022-08-09T10:48:14.505Z,43.60
2022-08-09T10:51:00.109Z,43.10
2022-08-09T10:53:46.800Z,44.50
2022-08-09T10:56:26.024Z,36.60
2022-08-09T10:58:57.312Z,34.50
2022-08-09T11:03:15.493Z,34.20
2022-08-09T11:04:35.662Z,42.40
2022-08-09T11:07:56.908Z,34.20
2022-08-09T11:11:00.525Z,36.00
2022-08-09T11:13:53.791Z,41.00
2022-08-09T11:16:41.043Z,39.10
2022-08-09T11:19:14.065Z,42.40
2022-08-09T11:22:16.615Z,33.10
2022-08-09T11:25:08.836Z,32.60
2022-08-09T11:28:04.750Z,33.70
2022-08-09T11:30:37.960Z,34.70
2022-08-09T11:33:13.119Z,32.70
2022-08-09T11:35:52.061Z,33.70
2022-08-09T11:38:32.292Z,39.30
2022-08-09T11:41:06.326Z,33.50
2022-08-09T11:43:45.620Z,38.30
2022-08-09T11:49:05.298Z,33.00
2022-08-09T11:53:00.943Z,32.20
2022-08-09T11:55:34.977Z,32.20
2022-08-09T11:58:50.023Z,39.60
2022-08-09T12:02:01.149Z,36.10
2022-08-09T12:04:20.916Z,36.00
2022-08-09T12:07:01.502Z,33.40
2022-08-09T12:09:35.462Z,32.20
2022-08-09T12:12:12.331Z,37.40
2022-08-09T12:17:44.306Z,32.30
2022-08-09T12:20:21.370Z,32.30
2022-08-09T12:22:56.626Z,32.10
2022-08-09T12:25:36.636Z,32.10
2022-08-09T12:29:10.807Z,31.40
2022-08-09T12:31:11.195Z,31.40
2022-08-09T12:34:01.063Z,33.10
2022-08-09T12:36:33.959Z,36.80
2022-08-09T12:39:17.363Z,33.10
2022-08-09T12:41:49.999Z,35.40
2022-08-09T12:44:24.561Z,38.00
2022-08-09T12:46:54.898Z,35.30
2022-08-09T12:52:02.284Z,35.70
2022-08-09T12:56:12.616Z,30.50
2022-08-09T12:57:42.969Z,36.50
2022-08-09T13:00:25.478Z,36.40
2022-08-09T13:02:58.056Z,30.90
2022-08-09T13:05:50.687Z,30.00
2022-08-09T13:08:39.731Z,30.00
2022-08-09T13:11:24.373Z,37.20
2022-08-09T13:14:42.653Z,30.90
2022-08-09T13:16:53.789Z,31.10
2022-08-09T13:20:08.740Z,31.40
2022-08-09T13:22:37.480Z,33.30
2022-08-09T13:25:12.203Z,31.60
2022-08-09T13:27:54.649Z,31.00
2022-08-09T13:30:51.116Z,40.10
2022-08-09T13:33:52.861Z,39.30
2022-08-09T13:36:39.107Z,39.20
2022-08-09T13:42:01.422Z,38.40
2022-08-09T13:44:35.916Z,38.40
2022-08-09T13:47:29.011Z,39.60
2022-08-09T13:50:00.762Z,40.40
2022-08-09T13:52:33.845Z,30.90
2022-08-09T13:55:07.276Z,30.20
2022-08-09T13:57:40.635Z,29.60
2022-08-09T14:00:17.023Z,27.70
2022-08-09T14:03:57.771Z,38.60
2022-08-09T14:11:00.485Z,32.80
2022-08-09T14:16:28.640Z,37.20
2022-08-09T14:24:10.347Z,31.70
2022-08-09T14:32:16.328Z,30.20
2022-08-09T14:34:56.824Z,35.60
2022-08-09T14:37:28.271Z,30.50
2022-08-09T14:42:32.349Z,31.80
2022-08-09T14:47:59.300Z,36.10
2022-08-09T14:50:32.485Z,33.70
2022-08-09T14:53:03.253Z,32.50
2022-08-09T14:58:12.258Z,31.90
2022-08-09T15:00:48.402Z,39.60
2022-08-09T15:03:24.049Z,39.50
2022-08-09T15:05:54.994Z,39.60
2022-08-09T15:11:04.834Z,42.20
2022-08-09T15:13:48.016Z,34.30
2022-08-09T15:19:15.893Z,44.00
2022-08-09T15:24:32.674Z,38.90
2022-08-09T15:27:02.676Z,39.90
2022-08-09T15:32:39.130Z,42.10
2022-08-09T15:35:40.150Z,33.90
2022-08-09T15:40:44.237Z,42.40
2022-08-09T15:43:14.821Z,42.60
2022-08-09T15:45:52.018Z,34.50
2022-08-09T15:48:36.079Z,36.00
2022-08-09T15:51:11.394Z,43.90
2022-08-09T15:56:49.303Z,36.00
2022-08-09T15:59:19.730Z,41.10
2022-08-09T16:01:50.015Z,42.80
2022-08-09T16:04:23.062Z,42.80
2022-08-09T16:06:55.934Z,42.90
2022-08-09T16:09:51.524Z,40.80
2022-08-09T16:14:46.387Z,44.10
2022-08-09T16:17:17.186Z,40.30
2022-08-09T16:22:36.430Z,37.40
2022-08-09T16:25:15.841Z,43.50
2022-08-09T16:30:25.989Z,45.50
2022-08-09T16:33:11.592Z,43.20
2022-08-09T16:35:55.692Z,39.30
2022-08-09T16:38:31.805Z,37.40
2022-08-09T16:51:29.793Z,38.10
2022-08-09T16:54:28.299Z,36.10
2022-08-09T17:04:28.611Z,46.00
2022-08-09T17:08:45.076Z,37.60
2022-08-09T17:09:52.049Z,37.40
2022-08-09T17:12:32.173Z,42.50
2022-08-09T17:15:31.492Z,38.40
2022-08-09T17:17:52.588Z,39.90
2022-08-09T17:20:37.652Z,48.90
2022-08-09T17:25:53.053Z,48.30
2022-08-09T17:30:53.570Z,48.40
2022-08-09T17:38:32.061Z,40.10
2022-08-09T17:41:07.105Z,41.20
2022-08-09T17:43:38.018Z,49.00
2022-08-09T17:46:09.988Z,40.40
2022-08-09T17:48:52.276Z,40.60
2022-08-09T17:51:23.371Z,41.00
2022-08-09T17:53:55.814Z,49.80
2022-08-09T17:56:32.581Z,49.70
2022-08-09T17:59:11.859Z,50.10
2022-08-09T18:02:06.963Z,41.20
2022-08-09T18:04:36.795Z,50.00
2022-08-09T18:10:04.285Z,47.60
2022-08-09T18:12:40.468Z,50.90
2022-08-09T18:16:08.052Z,42.40
2022-08-09T18:21:19.077Z,49.80
2022-08-09T18:26:46.805Z,43.80
2022-08-09T18:30:40.708Z,52.10
2022-08-09T18:32:12.133Z,44.10
2022-08-09T18:34:43.557Z,52.20
2022-08-09T18:40:05.183Z,44.90
2022-08-09T18:42:36.400Z,46.30
2022-08-09T18:45:21.513Z,45.00
2022-08-09T18:48:01.793Z,53.30
2022-08-09T18:50:33.667Z,53.50
2022-08-09T18:53:04.661Z,54.30
2022-08-09T18:55:56.500Z,54.80
2022-08-09T18:58:33.161Z,55.20
2022-08-09T19:01:05.886Z,56.70
2022-08-09T19:03:57.737Z,56.50
2022-08-09T19:06:26.080Z,57.10
2022-08-09T19:09:02.489Z,57.10
2022-08-09T19:11:38.022Z,52.10
2022-08-09T19:16:42.649Z,52.60
2022-08-09T19:19:25.274Z,58.80
2022-08-09T19:22:06.871Z,59.30
2022-08-09T19:25:07.643Z,59.20
2022-08-09T19:27:31.356Z,59.40
2022-08-09T19:30:25.247Z,50.50
2022-08-09T19:32:55.381Z,50.90
2022-08-09T19:35:26.768Z,59.20
2022-08-09T19:37:57.659Z,59.90
2022-08-09T19:43:10.365Z,55.40
2022-08-09T19:45:47.299Z,60.20
2022-08-09T19:49:00.535Z,52.40
2022-08-09T19:51:11.569Z,52.80
2022-08-09T19:53:45.474Z,60.10
2022-08-09T19:56:28.830Z,53.00
2022-08-09T19:59:39.676Z,61.90
2022-08-09T20:02:05.269Z,61.80
2022-08-09T20:04:47.924Z,61.90
2022-08-09T20:07:23.109Z,57.40
2022-08-09T20:09:53.088Z,57.60
2022-08-09T20:12:41.393Z,62.10
2022-08-09T20:16:35.774Z,59.70
2022-08-09T20:18:03.711Z,55.70
2022-08-09T20:20:41.008Z,63.10
2022-08-09T20:23:11.477Z,56.30
2022-08-09T20:28:34.462Z,63.50
2022-08-09T20:31:14.193Z,63.40
2022-08-09T20:36:20.211Z,55.40
2022-08-09T20:41:40.709Z,62.70
2022-08-09T20:44:11.197Z,65.60
2022-08-09T20:46:44.458Z,64.50
2022-08-09T20:49:16.738Z,65.20
2022-08-09T20:51:50.801Z,65.00
2022-08-09T20:54:21.985Z,61.90
2022-08-09T20:56:54.568Z,56.90
2022-08-09T21:00:19.211Z,56.40
2022-08-09T21:02:18.675Z,66.10
2022-08-09T21:05:53.960Z,61.30
2022-08-09T21:07:44.525Z,59.50
2022-08-09T21:15:34.727Z,66.80
2022-08-09T21:18:11.479Z,59.00
2022-08-09T21:20:54.539Z,67.10
2022-08-09T21:23:47.786Z,66.90
2022-08-09T21:26:18.808Z,67.10
2022-08-09T21:28:55.476Z,58.40
2022-08-09T21:31:48.080Z,67.30
2022-08-09T21:34:28.453Z,67.50
2022-08-09T21:36:59.285Z,68.10
2022-08-09T21:39:42.274Z,67.90
2022-08-09T21:44:43.659Z,67.90
2022-08-09T21:47:17.428Z,59.10
2022-08-09T21:49:49.667Z,59.20
2022-08-09T21:52:22.340Z,60.10
2022-08-09T21:55:03.330Z,59.30
2022-08-09T21:57:39.190Z,59.50
2022-08-09T22:00:32.092Z,61.80
2022-08-09T22:03:05.839Z,67.40
2022-08-09T22:05:42.214Z,59.80
2022-08-09T22:08:15.073Z,59.90
2022-08-09T22:11:50.259Z,69.40
2022-08-09T22:16:13.876Z,70.00
2022-08-09T22:18:54.047Z,60.20
2022-08-09T22:21:27.400Z,63.50
2022-08-09T22:24:17.018Z,65.50
2022-08-09T22:26:53.471Z,61.60
2022-08-09T22:29:32.379Z,64.40
2022-08-09T22:35:06.249Z,61.90
2022-08-09T22:43:17.010Z,71.70
2022-08-09T22:48:51.909Z,70.80
2022-08-09T22:51:24.231Z,70.80
2022-08-09T22:54:02.269Z,70.00
2022-08-09T22:59:58.469Z,61.60
2022-08-09T23:01:58.287Z,63.00
2022-08-09T23:04:32.547Z,61.60
2022-08-09T23:10:11.902Z,61.80
2022-08-09T23:12:41.865Z,69.40
2022-08-09T23:15:14.620Z,62.10
2022-08-09T23:20:14.862Z,63.50
2022-08-09T23:22:44.936Z,61.80
2022-08-09T23:28:14.001Z,64.20
2022-08-09T23:30:38.721Z,72.40
2022-08-09T23:33:08.665Z,71.70
2022-08-09T23:36:04.697Z,66.80
2022-08-09T23:40:58.776Z,64.90
2022-08-09T23:46:01.733Z,63.70
2022-08-09T23:53:33.595Z,63.50
2022-08-09T23:56:09.082Z,72.30
2022-08-09T23:58:39.065Z,72.20
